Orwell, Ohio
Current Conditions -  °F | °C
As of 1:53 PM on Thursday 23 Oct 2014 (Local Time) from KHZY Reporting Station
Scattered Clouds Scattered Clouds  
Wind Chill: 56°   Ceiling: Unl
Heat Index: 56°   Visibility: 10mi
Dew Point: 42°   Wind: 9mph
Humidity: 60%   Direction: 340°NNW
Pressure: 30.15"   Gusts: NA
Location:  41.54°N, 80.87°W
Report Text: KHZY 231753Z AUTO 34008KT 10SM SCT029 13/06 A3015 RMK AO2 SLP211 T01330056 10144 20033 58009
Loading
Personal Weather Stations






























Interactive Weather Map
Tropical Storm Tracking
New forecast layout! Learn more

10-Day Weather Forecast

Advertisements
Track Severe Weather on mobile